createdAt,value
2023-01-25T00:00:44.479Z,-0.93
2023-01-25T00:03:45.982Z,-0.93
2023-01-25T00:06:48.436Z,-0.99
2023-01-25T00:09:49.946Z,-1.06
2023-01-25T00:12:51.544Z,-1.08
2023-01-25T00:15:53.125Z,-1.07
2023-01-25T00:18:54.681Z,-1.04
2023-01-25T00:21:56.655Z,-1.02
2023-01-25T00:24:58.239Z,-1.02
2023-01-25T00:27:59.802Z,-1.04
2023-01-25T00:31:03.006Z,-1.11
2023-01-25T00:34:07.316Z,-1.21
2023-01-25T00:37:21.647Z,-1.31
2023-01-25T00:40:23.194Z,-1.47
2023-01-25T00:43:25.021Z,-1.56
2023-01-25T00:46:27.970Z,-1.62
2023-01-25T00:49:31.698Z,-1.66
2023-01-25T00:52:33.790Z,-1.63
2023-01-25T00:55:35.393Z,-1.59
2023-01-25T00:58:36.936Z,-1.55
2023-01-25T01:01:40.264Z,-1.53
2023-01-25T01:04:41.872Z,-1.55
2023-01-25T01:07:43.867Z,-1.64
2023-01-25T01:10:45.402Z,-1.71
2023-01-25T01:13:46.940Z,-1.74
2023-01-25T01:16:48.563Z,-1.71
2023-01-25T01:19:50.163Z,-1.67
2023-01-25T01:22:52.639Z,-1.64
2023-01-25T01:25:54.207Z,-1.61
2023-01-25T01:28:55.909Z,-1.57
2023-01-25T01:31:57.625Z,-1.53
2023-01-25T01:34:59.280Z,-1.52
2023-01-25T01:38:00.880Z,-1.49
2023-01-25T01:41:02.461Z,-1.49
2023-01-25T01:44:04.916Z,-1.49
2023-01-25T01:47:12.374Z,-1.47
2023-01-25T01:50:23.333Z,-1.47
2023-01-25T01:53:26.229Z,-1.49
2023-01-25T01:56:35.254Z,-1.48
2023-01-25T01:59:43.446Z,-1.51
2023-01-25T02:02:46.422Z,-1.55
2023-01-25T02:05:57.112Z,-1.57
2023-01-25T02:08:58.834Z,-1.59
2023-01-25T02:12:01.196Z,-1.60
2023-01-25T02:15:02.788Z,-1.61
2023-01-25T02:18:04.562Z,-1.59
2023-01-25T02:21:06.256Z,-1.59
2023-01-25T02:24:16.507Z,-1.60
2023-01-25T02:27:19.090Z,-1.61
2023-01-25T02:30:21.012Z,-1.60
2023-01-25T02:33:23.900Z,-1.58
2023-01-25T02:36:33.015Z,-1.57
2023-01-25T02:39:34.698Z,-1.58
2023-01-25T02:42:36.748Z,-1.55
2023-01-25T02:45:38.516Z,-1.56
2023-01-25T02:48:40.117Z,-1.56
2023-01-25T02:51:46.739Z,-1.53
2023-01-25T02:54:48.460Z,-1.52
2023-01-25T02:57:50.026Z,-1.50
2023-01-25T03:00:51.582Z,-1.50
2023-01-25T03:03:53.127Z,-1.49
2023-01-25T03:06:54.686Z,-1.48
2023-01-25T03:09:56.209Z,-1.48
2023-01-25T03:12:57.782Z,-1.47
2023-01-25T03:16:12.105Z,-1.46
2023-01-25T03:19:13.854Z,-1.46
2023-01-25T03:22:15.525Z,-1.49
2023-01-25T03:25:17.190Z,-1.51
2023-01-25T03:28:18.762Z,-1.50
2023-01-25T03:31:20.465Z,-1.51
2023-01-25T03:34:22.129Z,-1.51
2023-01-25T03:37:23.737Z,-1.52
2023-01-25T03:40:25.346Z,-1.54
2023-01-25T03:43:27.606Z,-1.55
2023-01-25T03:46:29.178Z,-1.53
2023-01-25T03:49:30.775Z,-1.52
2023-01-25T03:52:47.461Z,-1.50
2023-01-25T03:55:50.413Z,-1.49
2023-01-25T03:58:52.031Z,-1.48
2023-01-25T04:01:53.626Z,-1.46
2023-01-25T04:04:55.222Z,-1.48
2023-01-25T04:07:56.785Z,-1.49
2023-01-25T04:11:03.809Z,-1.49
2023-01-25T04:14:05.447Z,-1.52
2023-01-25T04:17:08.420Z,-1.51
2023-01-25T04:20:10.905Z,-1.51
2023-01-25T04:23:13.053Z,-1.54
2023-01-25T04:26:14.852Z,-1.56
2023-01-25T04:29:16.484Z,-1.57
2023-01-25T04:32:18.153Z,-1.56
2023-01-25T04:35:22.684Z,-1.55
2023-01-25T04:38:24.353Z,-1.56
2023-01-25T04:41:29.188Z,-1.55
2023-01-25T04:44:30.777Z,-1.54
2023-01-25T04:47:32.397Z,-1.54
2023-01-25T04:50:34.758Z,-1.53
2023-01-25T04:53:36.323Z,-1.51
2023-01-25T04:56:38.649Z,-1.50
2023-01-25T04:59:40.221Z,-1.49
2023-01-25T05:02:42.355Z,-1.48
2023-01-25T05:05:48.038Z,-1.50
2023-01-25T05:08:49.681Z,-1.52
2023-01-25T05:11:51.278Z,-1.56
2023-01-25T05:14:52.969Z,-1.59
2023-01-25T05:17:54.531Z,-1.64
2023-01-25T05:20:56.289Z,-1.70
2023-01-25T05:23:58.100Z,-1.72
2023-01-25T05:27:00.853Z,-1.71
2023-01-25T05:30:02.385Z,-1.72
2023-01-25T05:33:04.142Z,-1.75
2023-01-25T05:36:05.901Z,-1.76
2023-01-25T05:39:08.743Z,-1.73
2023-01-25T05:42:18.305Z,-1.69
2023-01-25T05:45:19.912Z,-1.70
2023-01-25T05:48:21.514Z,-1.70
2023-01-25T05:51:23.505Z,-1.73
2023-01-25T05:54:25.121Z,-1.75
2023-01-25T05:57:28.894Z,-1.78
2023-01-25T06:00:30.536Z,-1.77
2023-01-25T06:03:32.321Z,-1.79
2023-01-25T06:06:34.054Z,-1.80
2023-01-25T06:09:35.586Z,-1.81
2023-01-25T06:12:37.224Z,-1.81
2023-01-25T06:15:38.813Z,-1.79
2023-01-25T06:18:40.414Z,-1.79
2023-01-25T06:21:42.064Z,-1.78
2023-01-25T06:24:43.631Z,-1.77
2023-01-25T06:27:45.355Z,-1.73
2023-01-25T06:30:47.029Z,-1.69
2023-01-25T06:33:51.162Z,-1.67
2023-01-25T06:36:52.758Z,-1.66
2023-01-25T06:39:54.402Z,-1.64
2023-01-25T06:42:55.972Z,-1.67
2023-01-25T06:46:02.033Z,-1.69
2023-01-25T06:49:03.637Z,-1.68
2023-01-25T06:52:05.231Z,-1.66
2023-01-25T06:55:13.984Z,-1.65
2023-01-25T06:58:15.584Z,-1.64
2023-01-25T07:01:22.816Z,-1.65
2023-01-25T07:04:24.585Z,-1.69
2023-01-25T07:07:26.133Z,-1.53
2023-01-25T07:10:27.681Z,-1.51
2023-01-25T07:13:30.653Z,-1.52
2023-01-25T07:16:36.907Z,-1.55
2023-01-25T07:19:38.611Z,-1.60
2023-01-25T07:22:40.214Z,-1.66
2023-01-25T07:25:49.947Z,-1.69
2023-01-25T07:28:52.833Z,-1.72
2023-01-25T07:31:54.478Z,-1.78
2023-01-25T07:34:56.034Z,-1.80
2023-01-25T07:37:57.586Z,-1.83
2023-01-25T07:40:59.201Z,-1.85
2023-01-25T07:44:00.809Z,-1.84
2023-01-25T07:47:02.354Z,-1.85
2023-01-25T07:50:04.165Z,-1.87
2023-01-25T07:53:05.706Z,-1.90
2023-01-25T07:56:08.651Z,-1.91
2023-01-25T07:59:10.826Z,-1.92
2023-01-25T08:02:12.604Z,-1.92
2023-01-25T08:05:14.136Z,-1.92
2023-01-25T08:08:15.821Z,-1.90
2023-01-25T08:11:20.860Z,-1.88
2023-01-25T08:14:22.462Z,-1.80
2023-01-25T08:17:23.979Z,-1.78
2023-01-25T08:20:25.646Z,-1.81
2023-01-25T08:23:27.522Z,-1.83
2023-01-25T08:26:29.304Z,-1.83
2023-01-25T08:29:30.986Z,-1.87
2023-01-25T08:32:32.591Z,-1.92
2023-01-25T08:35:36.735Z,-1.94
2023-01-25T08:38:39.317Z,-1.94
2023-01-25T08:41:42.237Z,-1.96
2023-01-25T08:44:43.820Z,-1.95
2023-01-25T08:47:45.365Z,-1.96
2023-01-25T08:50:47.473Z,-1.99
2023-01-25T08:53:49.063Z,-2.04
2023-01-25T08:56:50.765Z,-2.07
2023-01-25T08:59:52.650Z,-2.08
2023-01-25T09:02:54.274Z,-2.09
2023-01-25T09:05:56.004Z,-2.12
2023-01-25T09:09:00.010Z,-2.14
2023-01-25T09:12:01.564Z,-2.17
2023-01-25T09:15:03.956Z,-2.16
2023-01-25T09:18:05.546Z,-2.18
2023-01-25T09:21:18.299Z,-2.22
2023-01-25T09:24:19.847Z,-2.22
2023-01-25T09:27:21.449Z,-2.21
2023-01-25T09:30:33.564Z,-2.21
2023-01-25T09:33:40.551Z,-2.18
2023-01-25T09:36:42.158Z,-2.15
2023-01-25T09:39:43.680Z,-2.12
2023-01-25T09:43:34.803Z,-2.12
2023-01-25T09:46:50.612Z,-1.88
2023-01-25T09:50:13.202Z,-1.83
2023-01-25T09:53:41.462Z,-1.85
2023-01-25T09:56:43.818Z,-1.87
2023-01-25T09:59:48.071Z,-1.92
2023-01-25T10:03:07.697Z,-1.96
2023-01-25T10:06:13.022Z,-2.03
2023-01-25T10:09:45.452Z,-2.08
2023-01-25T10:12:47.142Z,-2.09
2023-01-25T10:16:38.362Z,-2.10
2023-01-25T10:19:42.910Z,-2.10
2023-01-25T10:23:18.361Z,-2.09
2023-01-25T10:26:33.936Z,-2.11
2023-01-25T10:29:37.473Z,-2.13
2023-01-25T10:32:51.124Z,-2.13
2023-01-25T10:36:00.924Z,-2.13
2023-01-25T10:39:07.454Z,-2.16
2023-01-25T10:42:13.327Z,-2.16
2023-01-25T10:45:16.698Z,-2.18
2023-01-25T10:48:24.681Z,-2.15
2023-01-25T10:51:31.806Z,-2.14
2023-01-25T10:54:33.404Z,-2.12
2023-01-25T10:57:36.278Z,-2.11
2023-01-25T11:00:39.925Z,-2.13
2023-01-25T11:03:44.836Z,-2.16
2023-01-25T11:06:51.486Z,-2.15
2023-01-25T11:09:53.554Z,-2.15
2023-01-25T11:13:13.933Z,-2.14
2023-01-25T11:16:24.435Z,-2.18
2023-01-25T11:19:32.295Z,-2.18
2023-01-25T11:22:34.003Z,-2.24
2023-01-25T11:25:35.614Z,-2.03
2023-01-25T11:28:37.222Z,-1.94
2023-01-25T11:31:41.956Z,-1.98
2023-01-25T11:34:43.610Z,-2.04
2023-01-25T11:38:06.776Z,-2.08
2023-01-25T11:41:26.496Z,-2.13
2023-01-25T11:44:57.519Z,-2.14
2023-01-25T11:48:31.329Z,-2.15
2023-01-25T11:51:35.666Z,-2.15
2023-01-25T11:55:08.447Z,-2.17
2023-01-25T11:58:34.985Z,-2.21
2023-01-25T12:01:48.096Z,-2.25
2023-01-25T12:05:21.146Z,-2.24
2023-01-25T12:08:34.570Z,-2.27
2023-01-25T12:11:44.893Z,-2.27
2023-01-25T12:14:58.448Z,-2.27
2023-01-25T12:17:59.954Z,-2.29
2023-01-25T12:21:17.442Z,-2.32
2023-01-25T12:24:33.536Z,-2.32
2023-01-25T12:27:35.057Z,-2.35
2023-01-25T12:30:50.303Z,-2.34
2023-01-25T12:34:03.993Z,-2.34
2023-01-25T12:37:32.852Z,-2.33
2023-01-25T12:40:34.339Z,-2.35
2023-01-25T12:44:11.698Z,-2.34
2023-01-25T12:47:21.097Z,-2.35
2023-01-25T12:50:31.058Z,-2.35
2023-01-25T12:53:48.755Z,-2.37
2023-01-25T12:57:05.649Z,-2.37
2023-01-25T13:00:07.551Z,-2.34
2023-01-25T13:03:21.286Z,-2.35
2023-01-25T13:06:22.792Z,-2.35
2023-01-25T13:09:44.583Z,-2.35
2023-01-25T13:12:56.815Z,-2.35
2023-01-25T13:16:32.480Z,-2.37
2023-01-25T13:19:34.228Z,-2.38
2023-01-25T13:22:45.138Z,-2.37
2023-01-25T13:25:46.758Z,-2.36
2023-01-25T13:28:50.780Z,-2.36
2023-01-25T13:31:53.960Z,-2.35
2023-01-25T13:34:57.772Z,-2.38
2023-01-25T13:37:59.315Z,-2.41
2023-01-25T13:41:04.996Z,-2.44
2023-01-25T13:44:28.556Z,-2.46
2023-01-25T13:47:33.017Z,-2.52
2023-01-25T13:50:40.023Z,-2.55
2023-01-25T13:53:43.351Z,-2.59
2023-01-25T13:56:45.570Z,-2.55
2023-01-25T13:59:47.184Z,-2.51
2023-01-25T14:02:54.873Z,-2.53
2023-01-25T14:05:58.424Z,-2.57
2023-01-25T14:09:07.624Z,-2.56
2023-01-25T14:12:11.317Z,-2.57
2023-01-25T14:15:18.841Z,-2.57
2023-01-25T14:18:21.789Z,-2.58
2023-01-25T14:21:23.537Z,-2.60
2023-01-25T14:24:25.115Z,-2.61
2023-01-25T14:27:26.691Z,-2.61
2023-01-25T14:30:32.223Z,-2.61
2023-01-25T14:33:44.508Z,-2.63
2023-01-25T14:36:46.884Z,-2.65
2023-01-25T14:39:50.879Z,-2.64
2023-01-25T14:42:54.512Z,-2.58
2023-01-25T14:45:56.270Z,-2.59
2023-01-25T14:49:16.228Z,-2.60
2023-01-25T14:52:27.349Z,-2.59
2023-01-25T14:55:28.986Z,-2.57
2023-01-25T14:58:32.112Z,-2.56
2023-01-25T15:01:42.770Z,-2.57
2023-01-25T15:05:14.623Z,-2.59
2023-01-25T15:08:31.247Z,-2.64
2023-01-25T15:11:49.148Z,-2.66
2023-01-25T15:14:53.128Z,-2.69
2023-01-25T15:17:56.154Z,-2.70
2023-01-25T15:20:57.700Z,-2.72
2023-01-25T15:24:06.598Z,-2.70
2023-01-25T15:27:10.460Z,-2.70
2023-01-25T15:30:13.949Z,-2.72
2023-01-25T15:33:28.085Z,-2.73
2023-01-25T15:36:31.146Z,-2.75
2023-01-25T15:39:32.821Z,-2.77
2023-01-25T15:42:34.417Z,-2.77
2023-01-25T15:45:36.066Z,-2.75
2023-01-25T15:48:44.177Z,-2.70
2023-01-25T15:51:45.967Z,-2.62
2023-01-25T15:54:56.040Z,-2.53
2023-01-25T15:58:02.245Z,-2.34
2023-01-25T16:01:04.792Z,-2.32
2023-01-25T16:04:06.426Z,-2.29
2023-01-25T16:07:21.113Z,-2.28
2023-01-25T16:10:24.763Z,-2.29
2023-01-25T16:13:26.320Z,-2.29
2023-01-25T16:16:28.222Z,-2.30
2023-01-25T16:19:30.607Z,-2.32
2023-01-25T16:22:32.316Z,-2.37
2023-01-25T16:25:33.934Z,-2.41
2023-01-25T16:28:35.476Z,-2.45
2023-01-25T16:31:37.204Z,-2.48
2023-01-25T16:34:39.029Z,-2.52
2023-01-25T16:37:40.719Z,-2.54
2023-01-25T16:40:42.283Z,-2.54
2023-01-25T16:43:45.176Z,-2.49
2023-01-25T16:46:50.058Z,-2.44
2023-01-25T16:49:51.735Z,-2.42
2023-01-25T16:52:54.860Z,-2.41
2023-01-25T16:55:59.092Z,-2.41
2023-01-25T16:59:02.500Z,-2.37
2023-01-25T17:02:04.050Z,-2.32
2023-01-25T17:05:07.463Z,-2.29
2023-01-25T17:08:09.021Z,-2.28
2023-01-25T17:11:10.803Z,-2.27
2023-01-25T17:14:15.569Z,-2.23
2023-01-25T17:17:17.399Z,-2.21
2023-01-25T17:20:19.105Z,-2.21
2023-01-25T17:23:20.805Z,-2.22
2023-01-25T17:26:23.808Z,-2.23
2023-01-25T17:29:25.465Z,-2.23
2023-01-25T17:32:27.142Z,-2.22
2023-01-25T17:35:29.913Z,-2.18
2023-01-25T17:38:31.556Z,-2.13
2023-01-25T17:41:33.400Z,-2.10
2023-01-25T17:44:34.951Z,-2.07
2023-01-25T17:47:36.492Z,-2.08
2023-01-25T17:50:38.931Z,-2.11
2023-01-25T17:53:40.525Z,-2.11
2023-01-25T17:56:42.197Z,-2.11
2023-01-25T17:59:43.743Z,-2.12
2023-01-25T18:02:45.525Z,-2.14
2023-01-25T18:05:47.152Z,-2.14
2023-01-25T18:08:51.648Z,-2.15
2023-01-25T18:11:53.228Z,-2.16
2023-01-25T18:14:54.774Z,-2.19
2023-01-25T18:17:56.379Z,-2.22
2023-01-25T18:21:09.181Z,-2.27
2023-01-25T18:24:13.449Z,-2.29
2023-01-25T18:27:23.983Z,-2.28
2023-01-25T18:30:34.506Z,-2.28
2023-01-25T18:33:36.235Z,-2.28
2023-01-25T18:36:37.772Z,-2.30
2023-01-25T18:39:39.276Z,-2.29
2023-01-25T18:42:41.047Z,-2.31
2023-01-25T18:45:43.573Z,-2.30
2023-01-25T18:48:47.237Z,-2.30
2023-01-25T18:52:08.380Z,-2.30
2023-01-25T18:55:12.310Z,-2.28
2023-01-25T18:58:15.189Z,-2.27
2023-01-25T19:01:23.497Z,-2.25
2023-01-25T19:04:25.061Z,-2.27
2023-01-25T19:07:26.668Z,-2.31
2023-01-25T19:10:28.214Z,-2.36
2023-01-25T19:13:32.702Z,-2.39
2023-01-25T19:16:34.425Z,-2.38
2023-01-25T19:19:36.072Z,-2.39
2023-01-25T19:22:37.707Z,-2.39
2023-01-25T19:25:39.313Z,-2.40
2023-01-25T19:28:41.651Z,-2.42
2023-01-25T19:31:43.348Z,-2.42
2023-01-25T19:34:44.955Z,-2.42
2023-01-25T19:37:46.512Z,-2.41
2023-01-25T19:40:48.050Z,-2.36
2023-01-25T19:43:57.695Z,-2.37
2023-01-25T19:46:59.299Z,-2.38
2023-01-25T19:50:02.642Z,-2.35
2023-01-25T19:53:04.239Z,-2.39
2023-01-25T19:56:08.356Z,-2.41
2023-01-25T19:59:21.251Z,-2.41
2023-01-25T20:02:22.818Z,-2.41
2023-01-25T20:05:24.480Z,-2.34
2023-01-25T20:08:36.889Z,-2.32
2023-01-25T20:11:38.545Z,-2.31
2023-01-25T20:14:41.362Z,-2.27
2023-01-25T20:17:43.544Z,-2.25
2023-01-25T20:20:45.073Z,-2.25
2023-01-25T20:23:49.303Z,-2.25
2023-01-25T20:26:52.452Z,-2.25
2023-01-25T20:29:54.424Z,-2.25
2023-01-25T20:32:56.014Z,-2.24
2023-01-25T20:36:05.782Z,-2.24
2023-01-25T20:39:08.261Z,-2.23
2023-01-25T20:42:09.853Z,-2.20
2023-01-25T20:45:16.915Z,-2.17
2023-01-25T20:48:18.468Z,-2.19
2023-01-25T20:51:21.580Z,-2.17
2023-01-25T20:54:23.144Z,-2.15
2023-01-25T20:57:24.806Z,-2.13
2023-01-25T21:00:26.594Z,-2.09
2023-01-25T21:03:30.036Z,-2.07
2023-01-25T21:06:31.864Z,-2.10
2023-01-25T21:09:33.785Z,-2.16
2023-01-25T21:12:35.339Z,-2.18
2023-01-25T21:15:38.358Z,-2.22
2023-01-25T21:18:45.060Z,-2.23
2023-01-25T21:21:46.634Z,-2.22
2023-01-25T21:24:48.184Z,-2.17
2023-01-25T21:27:49.704Z,-2.15
2023-01-25T21:30:51.342Z,-2.15
2023-01-25T21:33:53.907Z,-2.17
2023-01-25T21:36:55.440Z,-2.17
2023-01-25T21:39:57.025Z,-2.15
2023-01-25T21:42:58.562Z,-2.14
2023-01-25T21:46:22.906Z,-2.15
2023-01-25T21:49:43.128Z,-2.15
2023-01-25T21:52:44.665Z,-2.15
2023-01-25T21:55:46.181Z,-2.13
2023-01-25T21:58:51.370Z,-1.96
2023-01-25T22:01:54.207Z,-1.91
2023-01-25T22:04:55.710Z,-1.88
2023-01-25T22:07:58.865Z,-1.90
2023-01-25T22:11:08.137Z,-1.92
2023-01-25T22:14:09.667Z,-1.92
2023-01-25T22:17:11.246Z,-1.94
2023-01-25T22:20:13.072Z,-1.98
2023-01-25T22:23:14.670Z,-1.96
2023-01-25T22:26:21.859Z,-1.97
2023-01-25T22:29:25.646Z,-2.03
2023-01-25T22:32:27.521Z,-2.09
2023-01-25T22:35:29.198Z,-2.12
2023-01-25T22:38:30.726Z,-2.11
2023-01-25T22:41:33.227Z,-2.13
2023-01-25T22:44:34.777Z,-2.16
2023-01-25T22:47:36.373Z,-2.15
2023-01-25T22:50:37.928Z,-2.13
2023-01-25T22:53:39.478Z,-2.16
2023-01-25T22:56:41.017Z,-2.24
2023-01-25T22:59:42.557Z,-2.27
2023-01-25T23:02:44.075Z,-2.25
2023-01-25T23:05:45.611Z,-2.27
2023-01-25T23:08:48.336Z,-2.30
2023-01-25T23:11:49.871Z,-2.29
2023-01-25T23:14:51.684Z,-2.28
2023-01-25T23:18:12.138Z,-2.06
2023-01-25T23:21:13.832Z,-2.04
2023-01-25T23:24:15.416Z,-2.03
2023-01-25T23:27:16.989Z,-2.09
2023-01-25T23:30:19.237Z,-2.13
2023-01-25T23:33:20.871Z,-2.14
2023-01-25T23:36:31.275Z,-2.16
2023-01-25T23:39:32.997Z,-2.20
2023-01-25T23:42:35.773Z,-2.24
2023-01-25T23:45:37.350Z,-2.25
2023-01-25T23:48:38.865Z,-2.28
2023-01-25T23:51:40.419Z,-2.30
2023-01-25T23:54:41.965Z,-2.32
2023-01-25T23:57:43.554Z,-2.33
